sensor_id;sensor_type;location;lat;lon;timestamp;pressure;altitude;pressure_sealevel;temperature;humidity
52469;BME280;38381;53.688;10.776;2023-06-26T00:02:00;101125.78;;;20.92;75.07
52469;BME280;38381;53.688;10.776;2023-06-26T00:07:01;101128.75;;;20.81;75.33
52469;BME280;38381;53.688;10.776;2023-06-26T00:12:01;101115.81;;;20.73;75.72
52469;BME280;38381;53.688;10.776;2023-06-26T00:17:02;101110.69;;;20.68;76.23
52469;BME280;38381;53.688;10.776;2023-06-26T00:22:03;101113.22;;;20.72;75.11
52469;BME280;38381;53.688;10.776;2023-06-26T00:27:04;101108.03;;;20.68;74.46
52469;BME280;38381;53.688;10.776;2023-06-26T00:32:06;101105.59;;;20.62;75.21
52469;BME280;38381;53.688;10.776;2023-06-26T00:37:06;101106.50;;;20.61;74.85
52469;BME280;38381;53.688;10.776;2023-06-26T00:42:07;101103.94;;;20.58;74.62
52469;BME280;38381;53.688;10.776;2023-06-26T00:47:09;101104.78;;;20.60;74.57
52469;BME280;38381;53.688;10.776;2023-06-26T00:52:09;101091.66;;;20.57;74.53
52469;BME280;38381;53.688;10.776;2023-06-26T00:57:10;101090.22;;;20.47;74.94
52469;BME280;38381;53.688;10.776;2023-06-26T01:02:10;101083.03;;;20.52;74.93
52469;BME280;38381;53.688;10.776;2023-06-26T01:07:11;101079.25;;;20.31;75.72
52469;BME280;38381;53.688;10.776;2023-06-26T01:12:11;101082.34;;;20.45;75.56
52469;BME280;38381;53.688;10.776;2023-06-26T01:17:12;101073.88;;;20.34;75.55
52469;BME280;38381;53.688;10.776;2023-06-26T01:22:23;101066.91;;;20.33;75.38
52469;BME280;38381;53.688;10.776;2023-06-26T01:27:28;101066.22;;;20.26;75.31
52469;BME280;38381;53.688;10.776;2023-06-26T01:32:31;101065.78;;;20.10;76.40
52469;BME280;38381;53.688;10.776;2023-06-26T01:37:32;101062.13;;;20.16;76.12
52469;BME280;38381;53.688;10.776;2023-06-26T01:42:35;101055.25;;;20.10;76.32
52469;BME280;38381;53.688;10.776;2023-06-26T01:47:37;101046.75;;;20.01;76.50
52469;BME280;38381;53.688;10.776;2023-06-26T01:57:56;101040.66;;;19.99;76.27
52469;BME280;38381;53.688;10.776;2023-06-26T02:02:58;101032.88;;;19.96;76.34
52469;BME280;38381;53.688;10.776;2023-06-26T02:07:58;101025.03;;;19.93;76.12
52469;BME280;38381;53.688;10.776;2023-06-26T02:13:01;101020.97;;;19.81;76.90
52469;BME280;38381;53.688;10.776;2023-06-26T02:18:01;101014.16;;;19.74;77.12
52469;BME280;38381;53.688;10.776;2023-06-26T02:23:02;101020.41;;;19.71;77.19
52469;BME280;38381;53.688;10.776;2023-06-26T02:28:02;101018.63;;;19.70;77.13
52469;BME280;38381;53.688;10.776;2023-06-26T02:33:02;101009.22;;;19.61;77.66
52469;BME280;38381;53.688;10.776;2023-06-26T02:38:03;101003.00;;;19.64;77.42
52469;BME280;38381;53.688;10.776;2023-06-26T02:43:04;101001.06;;;19.72;76.80
52469;BME280;38381;53.688;10.776;2023-06-26T02:48:05;101006.28;;;19.74;76.66
52469;BME280;38381;53.688;10.776;2023-06-26T02:53:05;100994.00;;;19.73;76.44
52469;BME280;38381;53.688;10.776;2023-06-26T02:58:05;100994.78;;;19.76;76.41
52469;BME280;38381;53.688;10.776;2023-06-26T03:03:07;100994.91;;;19.73;76.17
52469;BME280;38381;53.688;10.776;2023-06-26T03:08:07;100987.13;;;19.67;76.25
52469;BME280;38381;53.688;10.776;2023-06-26T03:13:08;100988.69;;;19.76;76.16
52469;BME280;38381;53.688;10.776;2023-06-26T03:18:08;100982.94;;;19.60;76.49
52469;BME280;38381;53.688;10.776;2023-06-26T03:23:09;100981.28;;;19.56;76.54
52469;BME280;38381;53.688;10.776;2023-06-26T03:28:10;100977.13;;;19.48;76.87
52469;BME280;38381;53.688;10.776;2023-06-26T03:33:10;100965.88;;;19.42;77.83
52469;BME280;38381;53.688;10.776;2023-06-26T03:38:11;100957.94;;;19.43;77.85
52469;BME280;38381;53.688;10.776;2023-06-26T03:43:11;100962.97;;;19.53;77.39
52469;BME280;38381;53.688;10.776;2023-06-26T03:48:12;100959.56;;;19.49;77.25
52469;BME280;38381;53.688;10.776;2023-06-26T03:53:12;100954.03;;;19.58;76.68
52469;BME280;38381;53.688;10.776;2023-06-26T03:58:13;100950.31;;;19.67;76.93
52469;BME280;38381;53.688;10.776;2023-06-26T04:03:13;100953.19;;;19.58;77.58
52469;BME280;38381;53.688;10.776;2023-06-26T04:08:14;100947.03;;;19.59;77.77
52469;BME280;38381;53.688;10.776;2023-06-26T04:13:14;100948.91;;;19.54;78.02
52469;BME280;38381;53.688;10.776;2023-06-26T04:18:15;100946.84;;;19.65;78.06
52469;BME280;38381;53.688;10.776;2023-06-26T04:23:15;100929.94;;;20.03;76.41
52469;BME280;38381;53.688;10.776;2023-06-26T04:28:15;100927.91;;;20.13;75.96
52469;BME280;38381;53.688;10.776;2023-06-26T04:33:16;100922.94;;;20.60;74.35
52469;BME280;38381;53.688;10.776;2023-06-26T04:38:17;100922.63;;;20.96;72.46
52469;BME280;38381;53.688;10.776;2023-06-26T04:43:17;100918.25;;;20.95;73.14
52469;BME280;38381;53.688;10.776;2023-06-26T04:48:17;100914.22;;;21.60;70.55
52469;BME280;38381;53.688;10.776;2023-06-26T04:53:18;100905.03;;;21.47;71.00
52469;BME280;38381;53.688;10.776;2023-06-26T04:58:19;100898.63;;;21.29;71.34
52469;BME280;38381;53.688;10.776;2023-06-26T05:03:20;100902.47;;;21.93;69.50
52469;BME280;38381;53.688;10.776;2023-06-26T05:08:24;100900.34;;;22.24;68.78
52469;BME280;38381;53.688;10.776;2023-06-26T05:13:26;100887.75;;;22.53;67.85
52469;BME280;38381;53.688;10.776;2023-06-26T05:18:26;100881.84;;;22.46;67.42
52469;BME280;38381;53.688;10.776;2023-06-26T05:23:30;100874.75;;;22.89;66.27
52469;BME280;38381;53.688;10.776;2023-06-26T05:28:31;100874.25;;;23.41;64.33
52469;BME280;38381;53.688;10.776;2023-06-26T05:33:34;100875.22;;;22.99;65.86
52469;BME280;38381;53.688;10.776;2023-06-26T05:38:35;100867.50;;;23.74;63.31
52469;BME280;38381;53.688;10.776;2023-06-26T05:43:35;100858.78;;;23.90;63.16
52469;BME280;38381;53.688;10.776;2023-06-26T05:48:36;100855.88;;;23.38;65.08
52469;BME280;38381;53.688;10.776;2023-06-26T05:53:36;100847.09;;;23.95;63.95
52469;BME280;38381;53.688;10.776;2023-06-26T05:58:37;100842.50;;;23.60;64.32
52469;BME280;38381;53.688;10.776;2023-06-26T06:03:39;100831.09;;;24.15;63.80
52469;BME280;38381;53.688;10.776;2023-06-26T06:08:39;100831.75;;;24.90;60.87
52469;BME280;38381;53.688;10.776;2023-06-26T06:13:40;100826.59;;;25.04;60.90
52469;BME280;38381;53.688;10.776;2023-06-26T06:18:40;100829.47;;;25.00;60.44
52469;BME280;38381;53.688;10.776;2023-06-26T06:23:41;100833.53;;;25.07;60.09
52469;BME280;38381;53.688;10.776;2023-06-26T06:28:41;100831.56;;;24.60;61.05
52469;BME280;38381;53.688;10.776;2023-06-26T06:33:41;100823.00;;;25.55;59.24
52469;BME280;38381;53.688;10.776;2023-06-26T06:38:43;100822.13;;;24.72;60.92
52469;BME280;38381;53.688;10.776;2023-06-26T06:43:44;100824.03;;;25.52;58.98
52469;BME280;38381;53.688;10.776;2023-06-26T06:48:44;100815.56;;;25.45;58.60
52469;BME280;38381;53.688;10.776;2023-06-26T06:53:46;100812.81;;;25.63;58.56
52469;BME280;38381;53.688;10.776;2023-06-26T06:58:47;100801.88;;;26.01;57.36
52469;BME280;38381;53.688;10.776;2023-06-26T07:03:47;100796.72;;;25.66;57.56
52469;BME280;38381;53.688;10.776;2023-06-26T07:08:47;100781.22;;;26.20;57.04
52469;BME280;38381;53.688;10.776;2023-06-26T07:13:48;100787.97;;;25.64;57.76
52469;BME280;38381;53.688;10.776;2023-06-26T07:18:48;100781.09;;;25.76;56.70
52469;BME280;38381;53.688;10.776;2023-06-26T07:23:50;100765.97;;;25.62;56.31
52469;BME280;38381;53.688;10.776;2023-06-26T07:28:50;100766.03;;;25.92;55.73
52469;BME280;38381;53.688;10.776;2023-06-26T07:33:51;100767.53;;;26.12;55.31
52469;BME280;38381;53.688;10.776;2023-06-26T07:38:51;100758.34;;;26.18;54.85
52469;BME280;38381;53.688;10.776;2023-06-26T07:43:51;100752.19;;;26.76;54.06
52469;BME280;38381;53.688;10.776;2023-06-26T07:48:53;100748.88;;;26.87;52.89
52469;BME280;38381;53.688;10.776;2023-06-26T07:53:53;100739.56;;;26.35;53.22
52469;BME280;38381;53.688;10.776;2023-06-26T07:58:53;100738.41;;;26.69;53.54
52469;BME280;38381;53.688;10.776;2023-06-26T08:03:54;100721.41;;;26.58;53.37
52469;BME280;38381;53.688;10.776;2023-06-26T08:08:54;100716.47;;;26.80;53.42
52469;BME280;38381;53.688;10.776;2023-06-26T08:13:55;100707.16;;;26.59;51.92
52469;BME280;38381;53.688;10.776;2023-06-26T08:18:55;100705.44;;;26.58;52.87
52469;BME280;38381;53.688;10.776;2023-06-26T08:23:56;100698.34;;;26.73;53.91
52469;BME280;38381;53.688;10.776;2023-06-26T08:28:56;100688.63;;;26.72;53.34
52469;BME280;38381;53.688;10.776;2023-06-26T08:33:56;100680.59;;;27.00;52.32
52469;BME280;38381;53.688;10.776;2023-06-26T08:38:57;100678.03;;;26.99;52.33
52469;BME280;38381;53.688;10.776;2023-06-26T08:43:58;100683.16;;;27.16;51.38
52469;BME280;38381;53.688;10.776;2023-06-26T08:49:28;100688.16;;;27.21;52.32
52469;BME280;38381;53.688;10.776;2023-06-26T08:54:36;100684.56;;;27.76;51.38
52469;BME280;38381;53.688;10.776;2023-06-26T08:59:41;100677.22;;;27.80;51.48
52469;BME280;38381;53.688;10.776;2023-06-26T09:04:41;100669.59;;;27.88;51.17
52469;BME280;38381;53.688;10.776;2023-06-26T09:09:42;100664.31;;;28.26;51.08
52469;BME280;38381;53.688;10.776;2023-06-26T09:14:43;100653.09;;;28.21;50.57
52469;BME280;38381;53.688;10.776;2023-06-26T09:19:45;100652.06;;;28.37;50.01
52469;BME280;38381;53.688;10.776;2023-06-26T09:24:46;100646.50;;;28.65;49.37
52469;BME280;38381;53.688;10.776;2023-06-26T09:29:48;100642.00;;;28.66;48.16
52469;BME280;38381;53.688;10.776;2023-06-26T09:34:52;100637.47;;;28.92;47.17
52469;BME280;38381;53.688;10.776;2023-06-26T09:39:52;100655.63;;;28.87;45.51
52469;BME280;38381;53.688;10.776;2023-06-26T09:44:53;100646.25;;;28.68;45.07
52469;BME280;38381;53.688;10.776;2023-06-26T09:49:54;100646.97;;;28.96;45.80
52469;BME280;38381;53.688;10.776;2023-06-26T09:55:15;100668.59;;;29.41;44.01
52469;BME280;38381;53.688;10.776;2023-06-26T10:00:16;100679.34;;;29.53;44.21
52469;BME280;38381;53.688;10.776;2023-06-26T10:05:17;100677.22;;;29.69;44.39
52469;BME280;38381;53.688;10.776;2023-06-26T10:10:19;100676.84;;;29.38;45.00
52469;BME280;38381;53.688;10.776;2023-06-26T10:15:22;100667.63;;;29.42;46.16
52469;BME280;38381;53.688;10.776;2023-06-26T10:20:24;100674.22;;;29.49;45.53
52469;BME280;38381;53.688;10.776;2023-06-26T10:25:26;100677.84;;;29.48;46.29
52469;BME280;38381;53.688;10.776;2023-06-26T10:30:31;100682.47;;;29.46;46.66
52469;BME280;38381;53.688;10.776;2023-06-26T10:35:40;100689.56;;;28.85;48.47
52469;BME280;38381;53.688;10.776;2023-06-26T10:40:43;100715.97;;;27.85;52.09
52469;BME280;38381;53.688;10.776;2023-06-26T10:45:48;100719.09;;;27.23;54.27
52469;BME280;38381;53.688;10.776;2023-06-26T10:50:54;100732.91;;;26.87;54.65
52469;BME280;38381;53.688;10.776;2023-06-26T10:55:56;100752.22;;;26.32;53.15
52469;BME280;38381;53.688;10.776;2023-06-26T11:01:39;100762.25;;;25.80;55.36
52469;BME280;38381;53.688;10.776;2023-06-26T11:06:40;100792.84;;;25.40;58.30
52469;BME280;38381;53.688;10.776;2023-06-26T11:16:57;100835.78;;;23.91;66.61
52469;BME280;38381;53.688;10.776;2023-06-26T11:22:04;100831.78;;;23.63;68.28
52469;BME280;38381;53.688;10.776;2023-06-26T11:27:05;100818.97;;;23.35;71.46
52469;BME280;38381;53.688;10.776;2023-06-26T11:32:06;100808.69;;;23.08;73.86
52469;BME280;38381;53.688;10.776;2023-06-26T11:37:06;100812.69;;;22.57;76.97
52469;BME280;38381;53.688;10.776;2023-06-26T11:42:08;100815.63;;;22.49;78.50
52469;BME280;38381;53.688;10.776;2023-06-26T11:47:15;100820.06;;;22.49;78.96
52469;BME280;38381;53.688;10.776;2023-06-26T11:52:16;100842.41;;;22.42;80.65
52469;BME280;38381;53.688;10.776;2023-06-26T11:57:16;100884.28;;;22.07;80.09
52469;BME280;38381;53.688;10.776;2023-06-26T12:02:17;100886.75;;;22.12;80.82
52469;BME280;38381;53.688;10.776;2023-06-26T12:07:18;100891.94;;;21.91;81.36
52469;BME280;38381;53.688;10.776;2023-06-26T12:12:19;100887.75;;;21.85;82.47
52469;BME280;38381;53.688;10.776;2023-06-26T12:17:22;100905.16;;;21.91;81.23
52469;BME280;38381;53.688;10.776;2023-06-26T12:22:24;100908.59;;;21.93;81.20
52469;BME280;38381;53.688;10.776;2023-06-26T12:27:25;100905.44;;;22.07;81.16
52469;BME280;38381;53.688;10.776;2023-06-26T12:32:25;100908.63;;;22.15;80.39
52469;BME280;38381;53.688;10.776;2023-06-26T12:37:26;100899.81;;;22.38;79.01
52469;BME280;38381;53.688;10.776;2023-06-26T12:42:27;100902.00;;;22.27;74.72
52469;BME280;38381;53.688;10.776;2023-06-26T12:47:28;100901.91;;;22.30;71.28
52469;BME280;38381;53.688;10.776;2023-06-26T12:52:31;100908.38;;;22.43;68.76
52469;BME280;38381;53.688;10.776;2023-06-26T12:57:31;100895.00;;;22.48;68.33
52469;BME280;38381;53.688;10.776;2023-06-26T13:02:32;100896.09;;;22.64;68.08
52469;BME280;38381;53.688;10.776;2023-06-26T13:07:32;100894.59;;;22.79;65.89
52469;BME280;38381;53.688;10.776;2023-06-26T13:12:32;100898.16;;;22.99;65.50
52469;BME280;38381;53.688;10.776;2023-06-26T13:17:33;100897.75;;;22.87;62.36
52469;BME280;38381;53.688;10.776;2023-06-26T13:22:34;100911.75;;;23.12;62.07
52469;BME280;38381;53.688;10.776;2023-06-26T13:27:35;100910.53;;;22.98;60.10
52469;BME280;38381;53.688;10.776;2023-06-26T13:32:35;100935.13;;;23.00;58.34
52469;BME280;38381;53.688;10.776;2023-06-26T13:37:36;100942.50;;;23.14;55.98
52469;BME280;38381;53.688;10.776;2023-06-26T13:42:36;100937.00;;;23.19;54.49
52469;BME280;38381;53.688;10.776;2023-06-26T13:47:37;100950.13;;;23.00;54.44
52469;BME280;38381;53.688;10.776;2023-06-26T13:52:41;100950.03;;;23.03;55.16
52469;BME280;38381;53.688;10.776;2023-06-26T13:57:41;100940.97;;;22.86;53.61
52469;BME280;38381;53.688;10.776;2023-06-26T14:02:42;100954.94;;;23.12;54.17
52469;BME280;38381;53.688;10.776;2023-06-26T14:07:42;100970.88;;;23.10;52.12
52469;BME280;38381;53.688;10.776;2023-06-26T14:12:43;100966.53;;;23.30;52.97
52469;BME280;38381;53.688;10.776;2023-06-26T14:17:44;100960.81;;;23.39;53.50
52469;BME280;38381;53.688;10.776;2023-06-26T14:22:44;100969.97;;;23.32;51.55
52469;BME280;38381;53.688;10.776;2023-06-26T14:27:45;100975.63;;;23.43;53.15
52469;BME280;38381;53.688;10.776;2023-06-26T14:32:45;100964.47;;;23.37;51.92
52469;BME280;38381;53.688;10.776;2023-06-26T14:37:47;100979.59;;;23.33;50.24
52469;BME280;38381;53.688;10.776;2023-06-26T14:42:48;100988.59;;;23.29;50.24
52469;BME280;38381;53.688;10.776;2023-06-26T14:47:48;100963.63;;;23.36;49.68
52469;BME280;38381;53.688;10.776;2023-06-26T14:52:49;100959.28;;;23.34;48.38
52469;BME280;38381;53.688;10.776;2023-06-26T14:57:49;100966.91;;;23.21;47.42
52469;BME280;38381;53.688;10.776;2023-06-26T15:02:50;100982.41;;;23.30;45.87
52469;BME280;38381;53.688;10.776;2023-06-26T15:07:53;100981.72;;;23.25;45.07
52469;BME280;38381;53.688;10.776;2023-06-26T15:12:53;100975.00;;;23.18;44.75
52469;BME280;38381;53.688;10.776;2023-06-26T15:17:54;100974.31;;;23.33;45.75
52469;BME280;38381;53.688;10.776;2023-06-26T15:22:54;100960.03;;;23.37;45.52
52469;BME280;38381;53.688;10.776;2023-06-26T15:27:55;100968.56;;;23.23;44.66
52469;BME280;38381;53.688;10.776;2023-06-26T15:32:55;100967.59;;;23.26;43.91
52469;BME280;38381;53.688;10.776;2023-06-26T15:37:55;100980.66;;;22.86;44.65
52469;BME280;38381;53.688;10.776;2023-06-26T15:42:56;101004.41;;;22.88;44.97
52469;BME280;38381;53.688;10.776;2023-06-26T15:47:56;101003.91;;;23.00;44.24
52469;BME280;38381;53.688;10.776;2023-06-26T15:52:57;101004.53;;;23.07;44.50
52469;BME280;38381;53.688;10.776;2023-06-26T15:57:57;101008.06;;;23.07;45.20
52469;BME280;38381;53.688;10.776;2023-06-26T16:02:57;101019.22;;;22.92;46.90
52469;BME280;38381;53.688;10.776;2023-06-26T16:07:58;101026.72;;;22.59;48.73
52469;BME280;38381;53.688;10.776;2023-06-26T16:12:58;101015.59;;;22.50;49.41
52469;BME280;38381;53.688;10.776;2023-06-26T16:17:59;101017.31;;;22.52;49.18
52469;BME280;38381;53.688;10.776;2023-06-26T16:22:59;101031.63;;;22.22;50.04
52469;BME280;38381;53.688;10.776;2023-06-26T16:27:59;101032.41;;;22.26;51.03
52469;BME280;38381;53.688;10.776;2023-06-26T16:33:00;101029.81;;;22.48;51.64
52469;BME280;38381;53.688;10.776;2023-06-26T16:38:01;101033.38;;;22.23;50.48
52469;BME280;38381;53.688;10.776;2023-06-26T16:43:02;101032.56;;;22.21;50.28
52469;BME280;38381;53.688;10.776;2023-06-26T16:48:03;101041.03;;;21.82;49.95
52469;BME280;38381;53.688;10.776;2023-06-26T16:53:04;101054.75;;;21.67;48.91
52469;BME280;38381;53.688;10.776;2023-06-26T16:58:05;101051.66;;;21.56;49.78
52469;BME280;38381;53.688;10.776;2023-06-26T17:03:05;101047.06;;;21.34;50.70
52469;BME280;38381;53.688;10.776;2023-06-26T17:08:06;101048.41;;;21.21;50.93
52469;BME280;38381;53.688;10.776;2023-06-26T17:13:07;101067.81;;;21.18;52.02
52469;BME280;38381;53.688;10.776;2023-06-26T17:18:08;101066.84;;;20.94;53.15
52469;BME280;38381;53.688;10.776;2023-06-26T17:23:09;101060.03;;;20.87;54.21
52469;BME280;38381;53.688;10.776;2023-06-26T17:28:09;101074.75;;;20.94;54.89
52469;BME280;38381;53.688;10.776;2023-06-26T17:33:09;101073.13;;;20.90;55.19
52469;BME280;38381;53.688;10.776;2023-06-26T17:38:11;101061.22;;;20.77;55.88
52469;BME280;38381;53.688;10.776;2023-06-26T17:43:11;101076.78;;;20.86;55.52
52469;BME280;38381;53.688;10.776;2023-06-26T17:48:11;101087.78;;;20.70;56.03
52469;BME280;38381;53.688;10.776;2023-06-26T17:53:12;101086.25;;;20.63;56.23
52469;BME280;38381;53.688;10.776;2023-06-26T17:58:12;101095.91;;;20.63;56.58
52469;BME280;38381;53.688;10.776;2023-06-26T18:03:13;101102.06;;;20.63;57.11
52469;BME280;38381;53.688;10.776;2023-06-26T18:08:13;101102.94;;;20.62;58.28
52469;BME280;38381;53.688;10.776;2023-06-26T18:13:13;101111.50;;;20.70;57.94
52469;BME280;38381;53.688;10.776;2023-06-26T18:18:14;101117.72;;;20.68;58.83
52469;BME280;38381;53.688;10.776;2023-06-26T18:23:15;101116.16;;;20.61;59.45
52469;BME280;38381;53.688;10.776;2023-06-26T18:28:15;101120.91;;;20.48;59.73
52469;BME280;38381;53.688;10.776;2023-06-26T18:33:16;101123.03;;;20.35;60.72
52469;BME280;38381;53.688;10.776;2023-06-26T18:38:16;101129.94;;;20.39;60.35
52469;BME280;38381;53.688;10.776;2023-06-26T18:43:17;101128.34;;;20.34;60.63
52469;BME280;38381;53.688;10.776;2023-06-26T18:48:17;101134.59;;;20.29;61.26
52469;BME280;38381;53.688;10.776;2023-06-26T18:53:18;101131.34;;;20.20;61.85
52469;BME280;38381;53.688;10.776;2023-06-26T18:58:18;101132.34;;;20.16;61.52
52469;BME280;38381;53.688;10.776;2023-06-26T19:03:19;101130.03;;;20.03;62.21
52469;BME280;38381;53.688;10.776;2023-06-26T19:08:19;101125.06;;;19.93;62.26
52469;BME280;38381;53.688;10.776;2023-06-26T19:13:20;101131.47;;;19.82;62.38
52469;BME280;38381;53.688;10.776;2023-06-26T19:18:20;101129.13;;;19.72;61.19
52469;BME280;38381;53.688;10.776;2023-06-26T19:23:21;101134.66;;;19.61;61.56
52469;BME280;38381;53.688;10.776;2023-06-26T19:28:22;101139.19;;;19.54;60.95
52469;BME280;38381;53.688;10.776;2023-06-26T19:33:22;101150.91;;;19.41;60.39
52469;BME280;38381;53.688;10.776;2023-06-26T19:38:22;101151.09;;;19.33;60.32
52469;BME280;38381;53.688;10.776;2023-06-26T19:43:23;101164.56;;;19.19;60.59
52469;BME280;38381;53.688;10.776;2023-06-26T19:48:23;101164.94;;;19.02;60.82
52469;BME280;38381;53.688;10.776;2023-06-26T19:53:27;101166.16;;;18.86;61.79
52469;BME280;38381;53.688;10.776;2023-06-26T19:58:28;101170.72;;;18.76;62.44
52469;BME280;38381;53.688;10.776;2023-06-26T20:03:28;101175.97;;;18.79;62.67
52469;BME280;38381;53.688;10.776;2023-06-26T20:08:28;101173.56;;;18.65;63.08
52469;BME280;38381;53.688;10.776;2023-06-26T20:13:30;101180.75;;;18.57;63.39
52469;BME280;38381;53.688;10.776;2023-06-26T20:18:30;101186.06;;;18.54;63.86
52469;BME280;38381;53.688;10.776;2023-06-26T20:23:31;101189.91;;;18.38;64.44
52469;BME280;38381;53.688;10.776;2023-06-26T20:28:31;101207.72;;;18.20;65.06
52469;BME280;38381;53.688;10.776;2023-06-26T20:33:32;101199.91;;;18.17;64.93
52469;BME280;38381;53.688;10.776;2023-06-26T20:38:32;101208.75;;;18.12;65.78
52469;BME280;38381;53.688;10.776;2023-06-26T20:43:33;101212.22;;;18.12;65.10
52469;BME280;38381;53.688;10.776;2023-06-26T20:48:34;101209.00;;;17.96;65.28
52469;BME280;38381;53.688;10.776;2023-06-26T20:53:35;101212.66;;;17.86;66.76
52469;BME280;38381;53.688;10.776;2023-06-26T20:58:35;101215.53;;;17.70;67.72
52469;BME280;38381;53.688;10.776;2023-06-26T21:03:36;101218.25;;;17.63;68.00
52469;BME280;38381;53.688;10.776;2023-06-26T21:08:36;101224.50;;;17.56;68.39
52469;BME280;38381;53.688;10.776;2023-06-26T21:13:36;101231.53;;;17.54;68.79
52469;BME280;38381;53.688;10.776;2023-06-26T21:18:37;101221.22;;;17.41;69.45
52469;BME280;38381;53.688;10.776;2023-06-26T21:23:37;101233.47;;;17.39;69.69
52469;BME280;38381;53.688;10.776;2023-06-26T21:28:38;101236.28;;;17.27;70.70
52469;BME280;38381;53.688;10.776;2023-06-26T21:33:38;101232.03;;;17.17;71.33
52469;BME280;38381;53.688;10.776;2023-06-26T21:38:40;101230.28;;;17.16;71.76
52469;BME280;38381;53.688;10.776;2023-06-26T21:43:41;101230.28;;;17.17;71.72
52469;BME280;38381;53.688;10.776;2023-06-26T21:48:42;101232.22;;;17.01;72.46
52469;BME280;38381;53.688;10.776;2023-06-26T21:53:43;101234.84;;;17.01;72.46
52469;BME280;38381;53.688;10.776;2023-06-26T21:58:43;101237.47;;;17.01;72.40
52469;BME280;38381;53.688;10.776;2023-06-26T22:03:44;101239.38;;;16.87;73.17
52469;BME280;38381;53.688;10.776;2023-06-26T22:08:45;101236.97;;;16.67;74.42
52469;BME280;38381;53.688;10.776;2023-06-26T22:13:45;101235.09;;;16.80;73.82
52469;BME280;38381;53.688;10.776;2023-06-26T22:18:45;101242.16;;;16.72;74.24
52469;BME280;38381;53.688;10.776;2023-06-26T22:23:46;101241.28;;;16.71;74.48
52469;BME280;38381;53.688;10.776;2023-06-26T22:28:46;101245.66;;;16.69;74.75
52469;BME280;38381;53.688;10.776;2023-06-26T22:33:47;101242.19;;;16.68;75.01
52469;BME280;38381;53.688;10.776;2023-06-26T22:38:47;101243.94;;;16.68;74.74
52469;BME280;38381;53.688;10.776;2023-06-26T22:43:48;101252.66;;;16.68;75.19
52469;BME280;38381;53.688;10.776;2023-06-26T22:48:48;101252.84;;;16.52;76.15
52469;BME280;38381;53.688;10.776;2023-06-26T22:53:48;101245.06;;;16.44;76.00
52469;BME280;38381;53.688;10.776;2023-06-26T22:58:49;101244.28;;;16.37;76.61
52469;BME280;38381;53.688;10.776;2023-06-26T23:03:49;101242.47;;;16.42;75.87
52469;BME280;38381;53.688;10.776;2023-06-26T23:08:50;101237.19;;;16.47;75.51
52469;BME280;38381;53.688;10.776;2023-06-26T23:13:51;101241.53;;;16.49;75.98
52469;BME280;38381;53.688;10.776;2023-06-26T23:18:53;101236.41;;;16.36;76.65
52469;BME280;38381;53.688;10.776;2023-06-26T23:23:54;101245.19;;;16.35;77.31
52469;BME280;38381;53.688;10.776;2023-06-26T23:28:57;101241.66;;;16.36;77.23
52469;BME280;38381;53.688;10.776;2023-06-26T23:33:58;101241.66;;;16.36;76.79
52469;BME280;38381;53.688;10.776;2023-06-26T23:38:58;101244.34;;;16.28;77.45
52469;BME280;38381;53.688;10.776;2023-06-26T23:43:59;101245.91;;;16.46;77.39
52469;BME280;38381;53.688;10.776;2023-06-26T23:48:59;101230.41;;;16.26;78.33
52469;BME280;38381;53.688;10.776;2023-06-26T23:54:00;101232.16;;;16.27;78.65
52469;BME280;38381;53.688;10.776;2023-06-26T23:59:00;101239.16;;;16.25;78.90
